sensor_id;sensor_type;location;lat;lon;timestamp;pressure;altitude;pressure_sealevel;temperature
12061;BMP180;6091;51.432;6.880;2022-12-18T00:01:26;102018.00;;;19.00
12061;BMP180;6091;51.432;6.880;2022-12-18T00:03:55;102014.00;;;19.00
12061;BMP180;6091;51.432;6.880;2022-12-18T00:06:25;102015.00;;;19.00
12061;BMP180;6091;51.432;6.880;2022-12-18T00:08:55;102025.00;;;19.00
12061;BMP180;6091;51.432;6.880;2022-12-18T00:11:27;102028.00;;;19.00
12061;BMP180;6091;51.432;6.880;2022-12-18T00:13:56;102028.00;;;19.00
12061;BMP180;6091;51.432;6.880;2022-12-18T00:16:26;102037.00;;;18.90
12061;BMP180;6091;51.432;6.880;2022-12-18T00:18:56;102030.00;;;18.90
12061;BMP180;6091;51.432;6.880;2022-12-18T00:21:23;102030.00;;;18.90
12061;BMP180;6091;51.432;6.880;2022-12-18T00:23:51;102017.00;;;18.90
12061;BMP180;6091;51.432;6.880;2022-12-18T00:26:28;102017.00;;;18.90
12061;BMP180;6091;51.432;6.880;2022-12-18T00:29:01;102018.00;;;18.90
12061;BMP180;6091;51.432;6.880;2022-12-18T00:31:28;102011.00;;;18.90
12061;BMP180;6091;51.432;6.880;2022-12-18T00:33:56;102010.00;;;18.90
12061;BMP180;6091;51.432;6.880;2022-12-18T00:36:30;102006.00;;;18.90
12061;BMP180;6091;51.432;6.880;2022-12-18T00:39:00;102010.00;;;18.90
12061;BMP180;6091;51.432;6.880;2022-12-18T00:41:28;102018.00;;;18.90
12061;BMP180;6091;51.432;6.880;2022-12-18T00:44:16;102010.00;;;18.90
12061;BMP180;6091;51.432;6.880;2022-12-18T00:46:44;102017.00;;;18.90
12061;BMP180;6091;51.432;6.880;2022-12-18T00:49:12;102014.00;;;18.80
12061;BMP180;6091;51.432;6.880;2022-12-18T00:51:39;102016.00;;;18.80
12061;BMP180;6091;51.432;6.880;2022-12-18T00:54:06;102015.00;;;18.80
12061;BMP180;6091;51.432;6.880;2022-12-18T00:56:36;102011.00;;;18.80
12061;BMP180;6091;51.432;6.880;2022-12-18T00:59:14;102011.00;;;18.80
12061;BMP180;6091;51.432;6.880;2022-12-18T01:01:41;102021.00;;;18.80
12061;BMP180;6091;51.432;6.880;2022-12-18T01:04:09;102020.00;;;18.80
12061;BMP180;6091;51.432;6.880;2022-12-18T01:06:36;102017.00;;;18.80
12061;BMP180;6091;51.432;6.880;2022-12-18T01:09:03;102012.00;;;18.80
12061;BMP180;6091;51.432;6.880;2022-12-18T01:11:31;102020.00;;;18.80
12061;BMP180;6091;51.432;6.880;2022-12-18T01:13:58;102011.00;;;18.80
12061;BMP180;6091;51.432;6.880;2022-12-18T01:16:25;102009.00;;;18.70
12061;BMP180;6091;51.432;6.880;2022-12-18T01:18:54;102012.00;;;18.70
12061;BMP180;6091;51.432;6.880;2022-12-18T01:21:22;102011.00;;;18.70
12061;BMP180;6091;51.432;6.880;2022-12-18T01:23:56;102005.00;;;18.70
12061;BMP180;6091;51.432;6.880;2022-12-18T01:26:25;101996.00;;;18.70
12061;BMP180;6091;51.432;6.880;2022-12-18T01:28:55;102001.00;;;18.70
12061;BMP180;6091;51.432;6.880;2022-12-18T01:31:27;102008.00;;;18.70
12061;BMP180;6091;51.432;6.880;2022-12-18T01:33:55;102007.00;;;18.60
12061;BMP180;6091;51.432;6.880;2022-12-18T01:36:32;102010.00;;;18.60
12061;BMP180;6091;51.432;6.880;2022-12-18T01:39:02;102005.00;;;18.60
12061;BMP180;6091;51.432;6.880;2022-12-18T01:41:31;102005.00;;;18.60
12061;BMP180;6091;51.432;6.880;2022-12-18T01:45:00;102006.00;;;18.60
12061;BMP180;6091;51.432;6.880;2022-12-18T01:50:32;101980.00;;;18.60
12061;BMP180;6091;51.432;6.880;2022-12-18T01:53:14;101981.00;;;18.60
12061;BMP180;6091;51.432;6.880;2022-12-18T01:55:52;101994.00;;;18.70
12061;BMP180;6091;51.432;6.880;2022-12-18T01:58:41;101986.00;;;18.70
12061;BMP180;6091;51.432;6.880;2022-12-18T02:01:10;101998.00;;;18.80
12061;BMP180;6091;51.432;6.880;2022-12-18T02:03:41;101994.00;;;18.80
12061;BMP180;6091;51.432;6.880;2022-12-18T02:06:33;101991.00;;;18.80
12061;BMP180;6091;51.432;6.880;2022-12-18T02:09:09;102001.00;;;18.80
12061;BMP180;6091;51.432;6.880;2022-12-18T02:11:56;102012.00;;;18.80
12061;BMP180;6091;51.432;6.880;2022-12-18T02:14:37;102021.00;;;18.80
12061;BMP180;6091;51.432;6.880;2022-12-18T02:17:22;102019.00;;;18.80
12061;BMP180;6091;51.432;6.880;2022-12-18T02:20:25;102004.00;;;18.80
12061;BMP180;6091;51.432;6.880;2022-12-18T02:23:19;102002.00;;;18.80
12061;BMP180;6091;51.432;6.880;2022-12-18T02:26:15;102007.00;;;18.70
12061;BMP180;6091;51.432;6.880;2022-12-18T02:28:55;101982.00;;;18.70
12061;BMP180;6091;51.432;6.880;2022-12-18T02:31:40;101991.00;;;18.70
12061;BMP180;6091;51.432;6.880;2022-12-18T02:34:11;101978.00;;;18.70
12061;BMP180;6091;51.432;6.880;2022-12-18T02:36:41;101972.00;;;18.60
12061;BMP180;6091;51.432;6.880;2022-12-18T02:39:12;101982.00;;;18.60
12061;BMP180;6091;51.432;6.880;2022-12-18T02:41:40;101987.00;;;18.60
12061;BMP180;6091;51.432;6.880;2022-12-18T02:44:12;101985.00;;;18.60
12061;BMP180;6091;51.432;6.880;2022-12-18T02:46:50;101986.00;;;18.60
12061;BMP180;6091;51.432;6.880;2022-12-18T02:57:57;101980.00;;;18.50
12061;BMP180;6091;51.432;6.880;2022-12-18T03:01:21;101977.00;;;18.50
12061;BMP180;6091;51.432;6.880;2022-12-18T03:03:51;101986.00;;;18.40
12061;BMP180;6091;51.432;6.880;2022-12-18T03:06:43;101992.00;;;18.40
12061;BMP180;6091;51.432;6.880;2022-12-18T03:09:29;101982.00;;;18.40
12061;BMP180;6091;51.432;6.880;2022-12-18T03:12:37;101980.00;;;18.40
12061;BMP180;6091;51.432;6.880;2022-12-18T03:15:17;101977.00;;;18.40
12061;BMP180;6091;51.432;6.880;2022-12-18T03:17:54;101970.00;;;18.40
12061;BMP180;6091;51.432;6.880;2022-12-18T03:20:24;101968.00;;;18.40
12061;BMP180;6091;51.432;6.880;2022-12-18T03:23:07;101966.00;;;18.40
12061;BMP180;6091;51.432;6.880;2022-12-18T03:25:41;101965.00;;;18.40
12061;BMP180;6091;51.432;6.880;2022-12-18T03:28:20;101960.00;;;18.40
12061;BMP180;6091;51.432;6.880;2022-12-18T03:30:56;101962.00;;;18.40
12061;BMP180;6091;51.432;6.880;2022-12-18T03:33:34;101955.00;;;18.30
12061;BMP180;6091;51.432;6.880;2022-12-18T03:36:05;101969.00;;;18.30
12061;BMP180;6091;51.432;6.880;2022-12-18T03:38:32;101973.00;;;18.30
12061;BMP180;6091;51.432;6.880;2022-12-18T03:41:19;101972.00;;;18.30
12061;BMP180;6091;51.432;6.880;2022-12-18T03:50:17;101980.00;;;18.30
12061;BMP180;6091;51.432;6.880;2022-12-18T03:55:53;101968.00;;;18.20
12061;BMP180;6091;51.432;6.880;2022-12-18T03:58:25;101966.00;;;18.30
12061;BMP180;6091;51.432;6.880;2022-12-18T04:00:56;101959.00;;;18.20
12061;BMP180;6091;51.432;6.880;2022-12-18T04:03:28;101959.00;;;18.20
12061;BMP180;6091;51.432;6.880;2022-12-18T04:05:59;101960.00;;;18.30
12061;BMP180;6091;51.432;6.880;2022-12-18T04:08:28;101945.00;;;18.20
12061;BMP180;6091;51.432;6.880;2022-12-18T04:10:59;101953.00;;;18.20
12061;BMP180;6091;51.432;6.880;2022-12-18T04:13:35;101942.00;;;18.30
12061;BMP180;6091;51.432;6.880;2022-12-18T04:16:02;101944.00;;;18.30
12061;BMP180;6091;51.432;6.880;2022-12-18T04:18:30;101959.00;;;18.10
12061;BMP180;6091;51.432;6.880;2022-12-18T04:20:57;101955.00;;;18.30
12061;BMP180;6091;51.432;6.880;2022-12-18T04:23:24;101959.00;;;18.40
12061;BMP180;6091;51.432;6.880;2022-12-18T04:25:51;101963.00;;;18.40
12061;BMP180;6091;51.432;6.880;2022-12-18T04:28:18;101961.00;;;18.40
12061;BMP180;6091;51.432;6.880;2022-12-18T04:30:45;101960.00;;;18.40
12061;BMP180;6091;51.432;6.880;2022-12-18T04:33:13;101958.00;;;18.40
12061;BMP180;6091;51.432;6.880;2022-12-18T04:35:42;101965.00;;;18.40
12061;BMP180;6091;51.432;6.880;2022-12-18T04:38:09;101951.00;;;18.40
12061;BMP180;6091;51.432;6.880;2022-12-18T04:40:38;101949.00;;;18.40
12061;BMP180;6091;51.432;6.880;2022-12-18T04:43:06;101948.00;;;18.40
12061;BMP180;6091;51.432;6.880;2022-12-18T04:45:34;101945.00;;;18.40
12061;BMP180;6091;51.432;6.880;2022-12-18T04:48:02;101941.00;;;18.40
12061;BMP180;6091;51.432;6.880;2022-12-18T04:50:30;101942.00;;;18.40
12061;BMP180;6091;51.432;6.880;2022-12-18T04:52:57;101940.00;;;18.40
12061;BMP180;6091;51.432;6.880;2022-12-18T04:55:24;101940.00;;;18.40
12061;BMP180;6091;51.432;6.880;2022-12-18T04:57:52;101946.00;;;18.40
12061;BMP180;6091;51.432;6.880;2022-12-18T05:00:19;101940.00;;;18.40
12061;BMP180;6091;51.432;6.880;2022-12-18T05:02:46;101944.00;;;18.30
12061;BMP180;6091;51.432;6.880;2022-12-18T05:05:13;101935.00;;;18.30
12061;BMP180;6091;51.432;6.880;2022-12-18T05:07:40;101929.00;;;18.30
12061;BMP180;6091;51.432;6.880;2022-12-18T05:10:08;101925.00;;;18.30
12061;BMP180;6091;51.432;6.880;2022-12-18T05:12:36;101921.00;;;18.30
12061;BMP180;6091;51.432;6.880;2022-12-18T05:15:24;101923.00;;;18.30
12061;BMP180;6091;51.432;6.880;2022-12-18T05:17:51;101920.00;;;18.20
12061;BMP180;6091;51.432;6.880;2022-12-18T05:20:18;101925.00;;;18.20
12061;BMP180;6091;51.432;6.880;2022-12-18T05:22:45;101929.00;;;18.20
12061;BMP180;6091;51.432;6.880;2022-12-18T05:25:12;101929.00;;;18.20
12061;BMP180;6091;51.432;6.880;2022-12-18T05:27:42;101927.00;;;18.20
12061;BMP180;6091;51.432;6.880;2022-12-18T05:30:11;101926.00;;;18.20
12061;BMP180;6091;51.432;6.880;2022-12-18T05:32:39;101932.00;;;18.20
12061;BMP180;6091;51.432;6.880;2022-12-18T05:35:09;101924.00;;;18.20
12061;BMP180;6091;51.432;6.880;2022-12-18T05:37:36;101931.00;;;18.20
12061;BMP180;6091;51.432;6.880;2022-12-18T05:40:10;101936.00;;;18.20
12061;BMP180;6091;51.432;6.880;2022-12-18T05:42:37;101943.00;;;18.10
12061;BMP180;6091;51.432;6.880;2022-12-18T05:45:05;101941.00;;;18.10
12061;BMP180;6091;51.432;6.880;2022-12-18T05:47:32;101942.00;;;18.10
12061;BMP180;6091;51.432;6.880;2022-12-18T05:49:59;101944.00;;;18.10
12061;BMP180;6091;51.432;6.880;2022-12-18T05:52:26;101949.00;;;18.10
12061;BMP180;6091;51.432;6.880;2022-12-18T05:54:53;101952.00;;;18.10
12061;BMP180;6091;51.432;6.880;2022-12-18T05:57:20;101960.00;;;18.10
12061;BMP180;6091;51.432;6.880;2022-12-18T05:59:47;101961.00;;;18.10
12061;BMP180;6091;51.432;6.880;2022-12-18T06:02:14;101961.00;;;18.10
12061;BMP180;6091;51.432;6.880;2022-12-18T06:04:41;101966.00;;;18.00
12061;BMP180;6091;51.432;6.880;2022-12-18T06:07:08;101982.00;;;18.00
12061;BMP180;6091;51.432;6.880;2022-12-18T06:09:35;101992.00;;;18.00
12061;BMP180;6091;51.432;6.880;2022-12-18T06:12:02;101994.00;;;18.10
12061;BMP180;6091;51.432;6.880;2022-12-18T06:14:29;101996.00;;;18.10
12061;BMP180;6091;51.432;6.880;2022-12-18T06:16:56;101998.00;;;18.10
12061;BMP180;6091;51.432;6.880;2022-12-18T06:19:23;101999.00;;;18.10
12061;BMP180;6091;51.432;6.880;2022-12-18T06:21:50;102000.00;;;18.20
12061;BMP180;6091;51.432;6.880;2022-12-18T06:24:17;101988.00;;;18.20
12061;BMP180;6091;51.432;6.880;2022-12-18T06:26:44;101994.00;;;18.30
12061;BMP180;6091;51.432;6.880;2022-12-18T06:29:11;101988.00;;;18.30
12061;BMP180;6091;51.432;6.880;2022-12-18T06:31:38;101990.00;;;18.30
12061;BMP180;6091;51.432;6.880;2022-12-18T06:34:05;101998.00;;;18.30
12061;BMP180;6091;51.432;6.880;2022-12-18T06:36:32;101989.00;;;18.30
12061;BMP180;6091;51.432;6.880;2022-12-18T06:38:59;101988.00;;;18.30
12061;BMP180;6091;51.432;6.880;2022-12-18T06:41:27;101983.00;;;18.30
12061;BMP180;6091;51.432;6.880;2022-12-18T06:43:53;101969.00;;;18.30
12061;BMP180;6091;51.432;6.880;2022-12-18T06:46:25;101968.00;;;18.30
12061;BMP180;6091;51.432;6.880;2022-12-18T06:48:53;101964.00;;;18.30
12061;BMP180;6091;51.432;6.880;2022-12-18T06:51:22;101961.00;;;18.30
12061;BMP180;6091;51.432;6.880;2022-12-18T06:53:49;101957.00;;;18.30
12061;BMP180;6091;51.432;6.880;2022-12-18T06:56:16;101948.00;;;18.30
12061;BMP180;6091;51.432;6.880;2022-12-18T06:58:43;101948.00;;;18.30
12061;BMP180;6091;51.432;6.880;2022-12-18T07:01:12;101946.00;;;18.20
12061;BMP180;6091;51.432;6.880;2022-12-18T07:03:41;101942.00;;;18.20
12061;BMP180;6091;51.432;6.880;2022-12-18T07:06:19;101925.00;;;18.20
12061;BMP180;6091;51.432;6.880;2022-12-18T07:08:48;101926.00;;;18.10
12061;BMP180;6091;51.432;6.880;2022-12-18T07:11:17;101925.00;;;18.10
12061;BMP180;6091;51.432;6.880;2022-12-18T07:13:45;101925.00;;;18.10
12061;BMP180;6091;51.432;6.880;2022-12-18T07:16:20;101928.00;;;18.10
12061;BMP180;6091;51.432;6.880;2022-12-18T07:18:53;101935.00;;;18.00
12061;BMP180;6091;51.432;6.880;2022-12-18T07:21:22;101935.00;;;18.00
12061;BMP180;6091;51.432;6.880;2022-12-18T07:23:49;101937.00;;;18.00
12061;BMP180;6091;51.432;6.880;2022-12-18T07:26:19;101938.00;;;18.00
12061;BMP180;6091;51.432;6.880;2022-12-18T07:28:47;101932.00;;;18.00
12061;BMP180;6091;51.432;6.880;2022-12-18T07:31:21;101933.00;;;17.90
12061;BMP180;6091;51.432;6.880;2022-12-18T07:33:52;101920.00;;;17.90
12061;BMP180;6091;51.432;6.880;2022-12-18T07:36:19;101912.00;;;17.90
12061;BMP180;6091;51.432;6.880;2022-12-18T07:38:49;101904.00;;;17.80
12061;BMP180;6091;51.432;6.880;2022-12-18T07:41:16;101905.00;;;17.80
12061;BMP180;6091;51.432;6.880;2022-12-18T07:43:46;101914.00;;;17.80
12061;BMP180;6091;51.432;6.880;2022-12-18T07:46:14;101911.00;;;17.80
12061;BMP180;6091;51.432;6.880;2022-12-18T07:48:44;101911.00;;;17.80
12061;BMP180;6091;51.432;6.880;2022-12-18T07:51:15;101924.00;;;17.80
12061;BMP180;6091;51.432;6.880;2022-12-18T07:53:44;101920.00;;;17.80
12061;BMP180;6091;51.432;6.880;2022-12-18T07:56:12;101919.00;;;17.70
12061;BMP180;6091;51.432;6.880;2022-12-18T07:58:58;101914.00;;;17.70
12061;BMP180;6091;51.432;6.880;2022-12-18T08:01:26;101909.00;;;17.70
12061;BMP180;6091;51.432;6.880;2022-12-18T08:03:54;101915.00;;;17.70
12061;BMP180;6091;51.432;6.880;2022-12-18T08:06:21;101916.00;;;17.70
12061;BMP180;6091;51.432;6.880;2022-12-18T08:08:55;101909.00;;;17.80
12061;BMP180;6091;51.432;6.880;2022-12-18T08:11:24;101905.00;;;17.80
12061;BMP180;6091;51.432;6.880;2022-12-18T08:13:52;101909.00;;;17.80
12061;BMP180;6091;51.432;6.880;2022-12-18T08:16:20;101881.00;;;17.80
12061;BMP180;6091;51.432;6.880;2022-12-18T08:18:48;101880.00;;;17.90
12061;BMP180;6091;51.432;6.880;2022-12-18T08:21:26;101883.00;;;17.90
12061;BMP180;6091;51.432;6.880;2022-12-18T08:23:55;101898.00;;;17.90
12061;BMP180;6091;51.432;6.880;2022-12-18T08:26:26;101880.00;;;18.00
12061;BMP180;6091;51.432;6.880;2022-12-18T08:28:55;101886.00;;;18.00
12061;BMP180;6091;51.432;6.880;2022-12-18T08:31:25;101870.00;;;18.00
12061;BMP180;6091;51.432;6.880;2022-12-18T08:33:54;101861.00;;;18.10
12061;BMP180;6091;51.432;6.880;2022-12-18T08:36:23;101854.00;;;18.10
12061;BMP180;6091;51.432;6.880;2022-12-18T08:38:52;101853.00;;;18.20
12061;BMP180;6091;51.432;6.880;2022-12-18T08:41:20;101851.00;;;18.30
12061;BMP180;6091;51.432;6.880;2022-12-18T08:43:48;101840.00;;;18.40
12061;BMP180;6091;51.432;6.880;2022-12-18T08:46:40;101848.00;;;18.50
12061;BMP180;6091;51.432;6.880;2022-12-18T08:49:09;101855.00;;;18.70
12061;BMP180;6091;51.432;6.880;2022-12-18T08:51:37;101858.00;;;18.90
12061;BMP180;6091;51.432;6.880;2022-12-18T08:54:06;101871.00;;;19.00
12061;BMP180;6091;51.432;6.880;2022-12-18T08:56:33;101862.00;;;19.20
12061;BMP180;6091;51.432;6.880;2022-12-18T08:59:01;101870.00;;;19.40
12061;BMP180;6091;51.432;6.880;2022-12-18T09:01:28;101874.00;;;19.60
12061;BMP180;6091;51.432;6.880;2022-12-18T09:03:56;101884.00;;;19.80
12061;BMP180;6091;51.432;6.880;2022-12-18T09:06:24;101874.00;;;19.90
12061;BMP180;6091;51.432;6.880;2022-12-18T09:08:51;101869.00;;;20.10
12061;BMP180;6091;51.432;6.880;2022-12-18T09:11:25;101858.00;;;20.50
12061;BMP180;6091;51.432;6.880;2022-12-18T09:13:54;101853.00;;;20.60
12061;BMP180;6091;51.432;6.880;2022-12-18T09:16:23;101853.00;;;20.70
12061;BMP180;6091;51.432;6.880;2022-12-18T09:18:58;101857.00;;;20.80
12061;BMP180;6091;51.432;6.880;2022-12-18T09:21:31;101861.00;;;21.00
12061;BMP180;6091;51.432;6.880;2022-12-18T09:24:03;101862.00;;;21.10
12061;BMP180;6091;51.432;6.880;2022-12-18T09:26:35;101854.00;;;21.30
12061;BMP180;6091;51.432;6.880;2022-12-18T09:29:03;101850.00;;;21.40
12061;BMP180;6091;51.432;6.880;2022-12-18T09:31:30;101854.00;;;21.50
12061;BMP180;6091;51.432;6.880;2022-12-18T09:33:57;101859.00;;;21.70
12061;BMP180;6091;51.432;6.880;2022-12-18T09:36:24;101856.00;;;21.80
12061;BMP180;6091;51.432;6.880;2022-12-18T09:38:51;101856.00;;;21.90
12061;BMP180;6091;51.432;6.880;2022-12-18T09:44:19;101882.00;;;22.10
12061;BMP180;6091;51.432;6.880;2022-12-18T09:47:11;101887.00;;;22.20
12061;BMP180;6091;51.432;6.880;2022-12-18T09:49:55;101876.00;;;22.40
12061;BMP180;6091;51.432;6.880;2022-12-18T09:52:48;101873.00;;;22.50
12061;BMP180;6091;51.432;6.880;2022-12-18T09:55:33;101870.00;;;22.50
12061;BMP180;6091;51.432;6.880;2022-12-18T09:58:24;101872.00;;;22.60
12061;BMP180;6091;51.432;6.880;2022-12-18T10:00:54;101845.00;;;22.70
12061;BMP180;6091;51.432;6.880;2022-12-18T10:03:22;101847.00;;;22.80
12061;BMP180;6091;51.432;6.880;2022-12-18T10:06:10;101852.00;;;22.90
12061;BMP180;6091;51.432;6.880;2022-12-18T10:20:32;101838.00;;;23.20
12061;BMP180;6091;51.432;6.880;2022-12-18T10:23:28;101837.00;;;23.30
12061;BMP180;6091;51.432;6.880;2022-12-18T10:26:10;101830.00;;;23.40
12061;BMP180;6091;51.432;6.880;2022-12-18T10:28:41;101819.00;;;23.40
12061;BMP180;6091;51.432;6.880;2022-12-18T10:31:22;101823.00;;;23.50
12061;BMP180;6091;51.432;6.880;2022-12-18T10:33:53;101823.00;;;23.50
12061;BMP180;6091;51.432;6.880;2022-12-18T10:36:24;101815.00;;;23.60
12061;BMP180;6091;51.432;6.880;2022-12-18T10:39:19;101814.00;;;23.70
12061;BMP180;6091;51.432;6.880;2022-12-18T10:41:46;101816.00;;;23.70
12061;BMP180;6091;51.432;6.880;2022-12-18T10:44:22;101811.00;;;23.80
12061;BMP180;6091;51.432;6.880;2022-12-18T10:47:12;101811.00;;;23.90
12061;BMP180;6091;51.432;6.880;2022-12-18T10:49:49;101815.00;;;23.90
12061;BMP180;6091;51.432;6.880;2022-12-18T10:52:21;101811.00;;;24.00
12061;BMP180;6091;51.432;6.880;2022-12-18T10:55:03;101797.00;;;24.10
12061;BMP180;6091;51.432;6.880;2022-12-18T10:57:34;101788.00;;;24.10
12061;BMP180;6091;51.432;6.880;2022-12-18T11:00:27;101795.00;;;24.10
12061;BMP180;6091;51.432;6.880;2022-12-18T11:02:55;101802.00;;;24.20
12061;BMP180;6091;51.432;6.880;2022-12-18T11:05:31;101794.00;;;24.20
12061;BMP180;6091;51.432;6.880;2022-12-18T11:08:00;101789.00;;;24.20
12061;BMP180;6091;51.432;6.880;2022-12-18T11:10:33;101785.00;;;24.30
12061;BMP180;6091;51.432;6.880;2022-12-18T11:13:27;101781.00;;;24.30
12061;BMP180;6091;51.432;6.880;2022-12-18T11:15:55;101787.00;;;24.30
12061;BMP180;6091;51.432;6.880;2022-12-18T11:18:33;101780.00;;;24.30
12061;BMP180;6091;51.432;6.880;2022-12-18T11:21:09;101779.00;;;24.40
12061;BMP180;6091;51.432;6.880;2022-12-18T11:23:49;101766.00;;;24.40
12061;BMP180;6091;51.432;6.880;2022-12-18T11:26:17;101765.00;;;24.40
12061;BMP180;6091;51.432;6.880;2022-12-18T11:28:49;101762.00;;;24.40
12061;BMP180;6091;51.432;6.880;2022-12-18T11:31:23;101767.00;;;24.50
12061;BMP180;6091;51.432;6.880;2022-12-18T11:34:06;101757.00;;;24.50
12061;BMP180;6091;51.432;6.880;2022-12-18T11:36:59;101759.00;;;24.50
12061;BMP180;6091;51.432;6.880;2022-12-18T11:39:44;101740.00;;;24.50
12061;BMP180;6091;51.432;6.880;2022-12-18T11:45:43;101728.00;;;24.50
12061;BMP180;6091;51.432;6.880;2022-12-18T11:48:26;101723.00;;;24.60
12061;BMP180;6091;51.432;6.880;2022-12-18T11:50:57;101730.00;;;24.60
12061;BMP180;6091;51.432;6.880;2022-12-18T11:53:27;101722.00;;;24.60
12061;BMP180;6091;51.432;6.880;2022-12-18T12:00:15;101733.00;;;24.60
12061;BMP180;6091;51.432;6.880;2022-12-18T12:03:24;101729.00;;;24.60
12061;BMP180;6091;51.432;6.880;2022-12-18T12:06:03;101726.00;;;24.60
12061;BMP180;6091;51.432;6.880;2022-12-18T12:14:58;101730.00;;;24.60
12061;BMP180;6091;51.432;6.880;2022-12-18T12:35:34;101710.00;;;24.70
12061;BMP180;6091;51.432;6.880;2022-12-18T12:38:30;101706.00;;;24.70
12061;BMP180;6091;51.432;6.880;2022-12-18T12:41:12;101710.00;;;24.80
12061;BMP180;6091;51.432;6.880;2022-12-18T12:44:06;101699.00;;;24.80
12061;BMP180;6091;51.432;6.880;2022-12-18T12:46:39;101691.00;;;24.80
12061;BMP180;6091;51.432;6.880;2022-12-18T12:49:31;101690.00;;;24.90
12061;BMP180;6091;51.432;6.880;2022-12-18T12:52:15;101693.00;;;25.00
12061;BMP180;6091;51.432;6.880;2022-12-18T12:54:44;101689.00;;;25.00
12061;BMP180;6091;51.432;6.880;2022-12-18T12:57:31;101670.00;;;25.00
12061;BMP180;6091;51.432;6.880;2022-12-18T13:00:19;101686.00;;;25.00
12061;BMP180;6091;51.432;6.880;2022-12-18T13:05:59;101697.00;;;25.00
12061;BMP180;6091;51.432;6.880;2022-12-18T13:08:31;101700.00;;;25.00
12061;BMP180;6091;51.432;6.880;2022-12-18T13:11:02;101700.00;;;25.00
12061;BMP180;6091;51.432;6.880;2022-12-18T13:14:28;101688.00;;;25.00
12061;BMP180;6091;51.432;6.880;2022-12-18T13:19:41;101662.00;;;25.20
12061;BMP180;6091;51.432;6.880;2022-12-18T13:22:31;101675.00;;;25.10
12061;BMP180;6091;51.432;6.880;2022-12-18T13:25:00;101673.00;;;25.10
12061;BMP180;6091;51.432;6.880;2022-12-18T13:28:02;101664.00;;;25.10
12061;BMP180;6091;51.432;6.880;2022-12-18T13:41:21;101634.00;;;25.30
12061;BMP180;6091;51.432;6.880;2022-12-18T13:43:57;101639.00;;;25.20
12061;BMP180;6091;51.432;6.880;2022-12-18T13:46:50;101632.00;;;25.20
12061;BMP180;6091;51.432;6.880;2022-12-18T13:49:47;101630.00;;;25.20
12061;BMP180;6091;51.432;6.880;2022-12-18T13:52:21;101620.00;;;25.20
12061;BMP180;6091;51.432;6.880;2022-12-18T13:54:55;101602.00;;;25.20
12061;BMP180;6091;51.432;6.880;2022-12-18T14:02:52;101604.00;;;25.20
12061;BMP180;6091;51.432;6.880;2022-12-18T14:05:31;101592.00;;;25.20
12061;BMP180;6091;51.432;6.880;2022-12-18T14:08:13;101590.00;;;25.20
12061;BMP180;6091;51.432;6.880;2022-12-18T14:10:44;101579.00;;;25.20
12061;BMP180;6091;51.432;6.880;2022-12-18T14:13:30;101583.00;;;25.20
12061;BMP180;6091;51.432;6.880;2022-12-18T14:16:01;101583.00;;;25.20
12061;BMP180;6091;51.432;6.880;2022-12-18T14:18:57;101582.00;;;25.20
12061;BMP180;6091;51.432;6.880;2022-12-18T14:21:45;101578.00;;;25.20
12061;BMP180;6091;51.432;6.880;2022-12-18T14:24:18;101583.00;;;25.20
12061;BMP180;6091;51.432;6.880;2022-12-18T14:26:48;101573.00;;;25.30
12061;BMP180;6091;51.432;6.880;2022-12-18T14:29:30;101567.00;;;25.30
12061;BMP180;6091;51.432;6.880;2022-12-18T14:32:14;101574.00;;;25.30
12061;BMP180;6091;51.432;6.880;2022-12-18T14:34:51;101554.00;;;25.30
12061;BMP180;6091;51.432;6.880;2022-12-18T14:37:26;101555.00;;;25.30
12061;BMP180;6091;51.432;6.880;2022-12-18T14:39:59;101562.00;;;25.30
12061;BMP180;6091;51.432;6.880;2022-12-18T14:42:36;101548.00;;;25.30
12061;BMP180;6091;51.432;6.880;2022-12-18T14:45:36;101556.00;;;25.30
12061;BMP180;6091;51.432;6.880;2022-12-18T14:50:40;101554.00;;;25.40
12061;BMP180;6091;51.432;6.880;2022-12-18T14:53:22;101534.00;;;25.40
12061;BMP180;6091;51.432;6.880;2022-12-18T14:55:50;101538.00;;;25.40
12061;BMP180;6091;51.432;6.880;2022-12-18T14:58:18;101540.00;;;25.40
12061;BMP180;6091;51.432;6.880;2022-12-18T15:00:46;101547.00;;;25.50
12061;BMP180;6091;51.432;6.880;2022-12-18T15:03:20;101549.00;;;25.70
12061;BMP180;6091;51.432;6.880;2022-12-18T15:05:48;101544.00;;;25.60
12061;BMP180;6091;51.432;6.880;2022-12-18T15:08:36;101538.00;;;25.50
12061;BMP180;6091;51.432;6.880;2022-12-18T15:11:45;101536.00;;;25.60
12061;BMP180;6091;51.432;6.880;2022-12-18T15:14:32;101544.00;;;25.60
12061;BMP180;6091;51.432;6.880;2022-12-18T15:17:15;101542.00;;;25.60
12061;BMP180;6091;51.432;6.880;2022-12-18T15:19:45;101543.00;;;25.60
12061;BMP180;6091;51.432;6.880;2022-12-18T15:22:28;101534.00;;;25.60
12061;BMP180;6091;51.432;6.880;2022-12-18T15:24:58;101527.00;;;25.60
12061;BMP180;6091;51.432;6.880;2022-12-18T15:32:41;101515.00;;;25.50
12061;BMP180;6091;51.432;6.880;2022-12-18T15:35:18;101515.00;;;25.50
12061;BMP180;6091;51.432;6.880;2022-12-18T15:37:46;101524.00;;;25.50
12061;BMP180;6091;51.432;6.880;2022-12-18T15:40:20;101526.00;;;25.40
12061;BMP180;6091;51.432;6.880;2022-12-18T15:42:54;101525.00;;;25.40
12061;BMP180;6091;51.432;6.880;2022-12-18T15:45:40;101525.00;;;25.30
12061;BMP180;6091;51.432;6.880;2022-12-18T15:48:27;101524.00;;;25.20
12061;BMP180;6091;51.432;6.880;2022-12-18T15:50:57;101511.00;;;25.20
12061;BMP180;6091;51.432;6.880;2022-12-18T15:53:31;101526.00;;;25.10
12061;BMP180;6091;51.432;6.880;2022-12-18T15:55:59;101521.00;;;25.00
12061;BMP180;6091;51.432;6.880;2022-12-18T15:58:44;101523.00;;;24.90
12061;BMP180;6091;51.432;6.880;2022-12-18T16:01:27;101519.00;;;24.80
12061;BMP180;6091;51.432;6.880;2022-12-18T16:03:55;101501.00;;;24.80
12061;BMP180;6091;51.432;6.880;2022-12-18T16:06:23;101517.00;;;24.70
12061;BMP180;6091;51.432;6.880;2022-12-18T16:08:50;101517.00;;;24.60
12061;BMP180;6091;51.432;6.880;2022-12-18T16:14:20;101527.00;;;24.40
12061;BMP180;6091;51.432;6.880;2022-12-18T16:16:50;101524.00;;;24.30
12061;BMP180;6091;51.432;6.880;2022-12-18T16:19:18;101513.00;;;24.20
12061;BMP180;6091;51.432;6.880;2022-12-18T16:21:47;101506.00;;;24.10
12061;BMP180;6091;51.432;6.880;2022-12-18T16:24:21;101532.00;;;24.00
12061;BMP180;6091;51.432;6.880;2022-12-18T16:26:49;101529.00;;;23.90
12061;BMP180;6091;51.432;6.880;2022-12-18T16:29:19;101525.00;;;23.80